Time,TemperatureF,DewpointF,PressureIn,WindDirection,WindDirectionDegrees,WindSpeedMPH,WindSpeedGustMPH,Humidity,HourlyPrecipIn,Conditions,Clouds,dailyrainin,SolarRadiationWatts/m^2,SoftwareType,DateUTC
2013-11-24 00:02:00,43.0,35.0,-100.00,NE,50,8.0,16.0,73,0.00,,,0.38,0.000000,,2013-11-24 06:02:00,
2013-11-24 00:22:00,43.0,34.0,-100.00,NE,52,7.0,14.0,71,0.00,,,0.35,0.000000,,2013-11-24 06:22:00,
2013-11-24 00:32:00,43.0,34.0,-100.00,NE,52,7.0,14.0,71,0.00,,,0.35,0.000000,,2013-11-24 06:32:00,
2013-11-24 00:42:00,43.0,34.0,-100.00,NE,52,7.0,14.0,71,0.00,,,0.35,0.000000,,2013-11-24 06:42:00,
2013-11-24 00:52:00,43.0,34.0,-100.00,NE,52,7.0,14.0,71,0.00,,,0.35,0.000000,,2013-11-24 06:52:00,
2013-11-24 01:02:00,43.0,34.0,-100.00,NE,52,7.0,14.0,71,0.00,,,0.35,0.000000,,2013-11-24 07:02:00,
2013-11-24 01:22:00,42.0,32.0,-100.00,NE,49,8.0,18.0,68,0.00,,,0.34,0.000000,,2013-11-24 07:22:00,
2013-11-24 01:32:00,42.0,32.0,-100.00,NE,49,8.0,18.0,68,0.00,,,0.34,0.000000,,2013-11-24 07:32:00,
2013-11-24 01:42:00,42.0,32.0,-100.00,NE,49,8.0,18.0,68,0.00,,,0.34,0.000000,,2013-11-24 07:42:00,
2013-11-24 01:52:00,42.0,32.0,-100.00,NE,49,8.0,18.0,68,0.00,,,0.34,0.000000,,2013-11-24 07:52:00,
2013-11-24 02:01:00,42.0,32.0,-100.00,NE,49,8.0,18.0,68,0.00,,,0.34,0.000000,,2013-11-24 08:01:00,
2013-11-24 02:22:00,42.0,30.0,-100.00,NE,50,9.0,18.0,63,0.00,,,0.34,0.000000,,2013-11-24 08:22:00,
2013-11-24 02:32:00,42.0,30.0,-100.00,NE,50,9.0,18.0,63,0.00,,,0.34,0.000000,,2013-11-24 08:32:00,
2013-11-24 02:42:00,42.0,30.0,-100.00,NE,50,9.0,18.0,63,0.00,,,0.34,0.000000,,2013-11-24 08:42:00,
2013-11-24 02:53:00,42.0,30.0,-100.00,NE,50,9.0,18.0,63,0.00,,,0.34,0.000000,,2013-11-24 08:53:00,
2013-11-24 03:02:00,42.0,30.0,-100.00,NE,50,9.0,18.0,63,0.00,,,0.34,0.000000,,2013-11-24 09:02:00,
2013-11-24 03:03:00,41.0,29.0,-100.00,NE,50,7.0,14.0,62,0.00,,,0.34,0.000000,,2013-11-24 09:03:00,
2013-11-24 03:22:00,41.0,29.0,-100.00,NE,50,7.0,14.0,62,0.00,,,0.34,0.000000,,2013-11-24 09:22:00,
2013-11-24 03:33:00,41.0,29.0,-100.00,NE,50,7.0,14.0,62,0.00,,,0.34,0.000000,,2013-11-24 09:33:00,
2013-11-24 03:43:00,41.0,29.0,-100.00,NE,50,7.0,14.0,62,0.00,,,0.34,0.000000,,2013-11-24 09:43:00,
2013-11-24 03:53:00,41.0,29.0,-100.00,NE,50,7.0,14.0,62,0.00,,,0.34,0.000000,,2013-11-24 09:53:00,
2013-11-24 04:03:00,39.0,27.0,-100.00,NE,43,6.0,15.0,62,0.00,,,0.33,0.000000,,2013-11-24 10:03:00,
2013-11-24 04:43:00,39.0,27.0,-100.00,NE,43,6.0,15.0,62,0.00,,,0.33,0.000000,,2013-11-24 10:43:00,
2013-11-24 04:53:00,39.0,27.0,-100.00,NE,43,6.0,15.0,62,0.00,,,0.33,0.000000,,2013-11-24 10:53:00,
2013-11-24 05:22:00,38.0,28.0,-100.00,NE,36,6.0,14.0,66,0.00,,,0.33,0.000000,,2013-11-24 11:22:00,
2013-11-24 05:33:00,38.0,28.0,-100.00,NE,36,6.0,14.0,66,0.00,,,0.33,0.000000,,2013-11-24 11:33:00,
2013-11-24 05:43:00,38.0,28.0,-100.00,NE,36,6.0,14.0,66,0.00,,,0.33,0.000000,,2013-11-24 11:43:00,
2013-11-24 05:53:00,38.0,28.0,-100.00,NE,36,6.0,14.0,66,0.00,,,0.33,0.000000,,2013-11-24 11:53:00,
2013-11-24 06:02:00,38.0,28.0,-100.00,NE,36,6.0,14.0,66,0.00,,,0.33,0.000000,,2013-11-24 12:02:00,
2013-11-24 06:22:00,38.0,28.0,-100.00,NE,41,8.0,16.0,68,0.00,,,0.33,0.000000,,2013-11-24 12:22:00,
2013-11-24 06:32:00,38.0,28.0,-100.00,NE,41,8.0,16.0,68,0.00,,,0.33,0.000000,,2013-11-24 12:32:00,
2013-11-24 06:42:00,38.0,28.0,-100.00,NE,41,8.0,16.0,68,0.00,,,0.33,0.000000,,2013-11-24 12:42:00,
2013-11-24 06:53:00,38.0,28.0,-100.00,NE,41,8.0,16.0,68,0.00,,,0.33,0.000000,,2013-11-24 12:53:00,
2013-11-24 07:02:00,38.0,28.0,-100.00,NE,41,8.0,16.0,68,0.00,,,0.33,0.000000,,2013-11-24 13:02:00,
2013-11-24 07:22:00,37.0,26.0,-100.00,NE,46,9.0,17.0,63,0.00,,,0.32,1.000000,,2013-11-24 13:22:00,
2013-11-24 07:32:00,37.0,26.0,-100.00,NE,46,9.0,17.0,63,0.00,,,0.32,1.000000,,2013-11-24 13:32:00,
2013-11-24 07:42:00,37.0,26.0,-100.00,NE,46,9.0,17.0,63,0.00,,,0.32,1.000000,,2013-11-24 13:42:00,
2013-11-24 07:52:00,37.0,26.0,-100.00,NE,46,9.0,17.0,63,0.00,,,0.32,1.000000,,2013-11-24 13:52:00,
2013-11-24 08:01:00,37.0,26.0,-100.00,NE,46,9.0,17.0,63,0.00,,,0.32,1.000000,,2013-11-24 14:01:00,
2013-11-24 08:42:00,37.0,26.0,-100.00,NE,38,9.0,19.0,65,0.00,,,0.32,40.000000,,2013-11-24 14:42:00,
2013-11-24 08:53:00,37.0,26.0,-100.00,NE,38,9.0,19.0,65,0.00,,,0.32,40.000000,,2013-11-24 14:53:00,
2013-11-24 09:02:00,37.0,26.0,-100.00,NE,38,9.0,19.0,65,0.00,,,0.32,40.000000,,2013-11-24 15:02:00,
2013-11-24 09:03:00,39.0,25.0,-100.00,ENE,57,11.0,25.0,58,0.00,,,0.28,232.000000,,2013-11-24 15:03:00,
2013-11-24 09:22:00,39.0,25.0,-100.00,ENE,57,11.0,25.0,58,0.00,,,0.28,232.000000,,2013-11-24 15:22:00,
2013-11-24 09:33:00,39.0,25.0,-100.00,ENE,57,11.0,25.0,58,0.00,,,0.28,232.000000,,2013-11-24 15:33:00,
2013-11-24 09:44:00,39.0,25.0,-100.00,ENE,57,11.0,25.0,58,0.00,,,0.28,232.000000,,2013-11-24 15:44:00,
2013-11-24 09:53:00,39.0,25.0,-100.00,ENE,57,11.0,25.0,58,0.00,,,0.28,232.000000,,2013-11-24 15:53:00,
2013-11-24 10:23:00,42.0,26.0,-100.00,NE,49,9.0,20.0,53,0.00,,,0.10,448.000000,,2013-11-24 16:23:00,
2013-11-24 10:33:00,42.0,26.0,-100.00,NE,49,9.0,20.0,53,0.00,,,0.10,448.000000,,2013-11-24 16:33:00,
2013-11-24 10:43:00,42.0,26.0,-100.00,NE,49,9.0,20.0,53,0.00,,,0.10,448.000000,,2013-11-24 16:43:00,
2013-11-24 10:53:00,42.0,26.0,-100.00,NE,49,9.0,20.0,53,0.00,,,0.10,448.000000,,2013-11-24 16:53:00,
2013-11-24 11:02:00,42.0,26.0,-100.00,NE,49,9.0,20.0,53,0.00,,,0.10,448.000000,,2013-11-24 17:02:00,
2013-11-24 11:23:00,42.0,23.0,-100.00,NE,53,11.0,19.0,46,0.00,,,0.07,518.000000,,2013-11-24 17:23:00,
2013-11-24 11:33:00,42.0,23.0,-100.00,NE,53,11.0,19.0,46,0.00,,,0.07,518.000000,,2013-11-24 17:33:00,
2013-11-24 11:43:00,42.0,23.0,-100.00,NE,53,11.0,19.0,46,0.00,,,0.07,518.000000,,2013-11-24 17:43:00,
2013-11-24 11:52:00,42.0,23.0,-100.00,NE,53,11.0,19.0,46,0.00,,,0.07,518.000000,,2013-11-24 17:52:00,
2013-11-24 12:02:00,42.0,23.0,-100.00,NE,53,11.0,19.0,46,0.00,,,0.07,518.000000,,2013-11-24 18:02:00,
2013-11-24 12:22:00,45.0,23.0,-100.00,NE,47,9.0,19.0,41,0.00,,,0.04,638.000000,,2013-11-24 18:22:00,
2013-11-24 12:33:00,45.0,23.0,-100.00,NE,47,9.0,19.0,41,0.00,,,0.04,638.000000,,2013-11-24 18:33:00,
2013-11-24 12:42:00,45.0,23.0,-100.00,NE,47,9.0,19.0,41,0.00,,,0.04,638.000000,,2013-11-24 18:42:00,
2013-11-24 12:53:00,45.0,23.0,-100.00,NE,47,9.0,19.0,41,0.00,,,0.04,638.000000,,2013-11-24 18:53:00,
2013-11-24 13:02:00,45.0,23.0,-100.00,NE,47,9.0,19.0,41,0.00,,,0.04,638.000000,,2013-11-24 19:02:00,
2013-11-24 13:22:00,46.0,23.0,-100.00,NE,53,9.0,17.0,40,0.00,,,0.00,493.000000,,2013-11-24 19:22:00,
2013-11-24 13:32:00,46.0,23.0,-100.00,NE,53,9.0,17.0,40,0.00,,,0.00,493.000000,,2013-11-24 19:32:00,
2013-11-24 13:42:00,46.0,23.0,-100.00,NE,53,9.0,17.0,40,0.00,,,0.00,493.000000,,2013-11-24 19:42:00,
2013-11-24 13:52:00,46.0,23.0,-100.00,NE,53,9.0,17.0,40,0.00,,,0.00,493.000000,,2013-11-24 19:52:00,
2013-11-24 14:02:00,46.0,23.0,-100.00,NE,53,9.0,17.0,40,0.00,,,0.00,493.000000,,2013-11-24 20:02:00,
2013-11-24 14:22:00,46.0,25.0,-100.00,North,5,7.0,16.0,43,0.00,,,0.00,365.000000,,2013-11-24 20:22:00,
2013-11-24 14:32:00,46.0,25.0,-100.00,North,5,7.0,16.0,43,0.00,,,0.00,365.000000,,2013-11-24 20:32:00,
2013-11-24 14:42:00,46.0,25.0,-100.00,North,5,7.0,16.0,43,0.00,,,0.00,365.000000,,2013-11-24 20:42:00,
2013-11-24 14:52:00,46.0,25.0,-100.00,North,5,7.0,16.0,43,0.00,,,0.00,365.000000,,2013-11-24 20:52:00,
2013-11-24 15:02:00,46.0,25.0,-100.00,North,5,7.0,16.0,43,0.00,,,0.00,365.000000,,2013-11-24 21:02:00,
2013-11-24 15:03:00,45.0,24.0,-100.00,NE,39,7.0,12.0,44,0.00,,,0.00,142.000000,,2013-11-24 21:03:00,
2013-11-24 15:22:00,45.0,24.0,-100.00,NE,39,7.0,12.0,44,0.00,,,0.00,142.000000,,2013-11-24 21:22:00,
2013-11-24 15:34:00,45.0,24.0,-100.00,NE,39,7.0,12.0,44,0.00,,,0.00,142.000000,,2013-11-24 21:34:00,
2013-11-24 15:43:00,45.0,24.0,-100.00,NE,39,7.0,12.0,44,0.00,,,0.00,142.000000,,2013-11-24 21:43:00,
2013-11-24 15:54:00,45.0,24.0,-100.00,NE,39,7.0,12.0,44,0.00,,,0.00,142.000000,,2013-11-24 21:54:00,
2013-11-24 16:23:00,44.0,25.0,-100.00,NE,36,6.0,12.0,47,0.00,,,0.00,73.000000,,2013-11-24 22:23:00,
2013-11-24 16:33:00,44.0,25.0,-100.00,NE,36,6.0,12.0,47,0.00,,,0.00,73.000000,,2013-11-24 22:33:00,
2013-11-24 16:43:00,44.0,25.0,-100.00,NE,36,6.0,12.0,47,0.00,,,0.00,73.000000,,2013-11-24 22:43:00,
2013-11-24 16:53:00,44.0,25.0,-100.00,NE,36,6.0,12.0,47,0.00,,,0.00,73.000000,,2013-11-24 22:53:00,
2013-11-24 17:02:00,44.0,25.0,-100.00,NE,36,6.0,12.0,47,0.00,,,0.00,73.000000,,2013-11-24 23:02:00,
2013-11-24 17:22:00,42.0,28.0,-100.00,NE,37,4.0,12.0,58,0.00,,,0.00,14.000000,,2013-11-24 23:22:00,
2013-11-24 17:33:00,42.0,28.0,-100.00,NE,37,4.0,12.0,58,0.00,,,0.00,14.000000,,2013-11-24 23:33:00,
2013-11-24 17:42:00,42.0,28.0,-100.00,NE,37,4.0,12.0,58,0.00,,,0.00,14.000000,,2013-11-24 23:42:00,
2013-11-24 17:52:00,42.0,28.0,-100.00,NE,37,4.0,12.0,58,0.00,,,0.00,14.000000,,2013-11-24 23:52:00,
2013-11-24 18:02:00,42.0,28.0,-100.00,NE,37,4.0,12.0,58,0.00,,,0.00,14.000000,,2013-11-25 00:02:00,
2013-11-24 18:42:00,41.0,32.0,-100.00,NNE,21,5.0,11.0,71,0.01,,,0.01,0.000000,,2013-11-25 00:42:00,
2013-11-24 18:52:00,41.0,32.0,-100.00,NNE,21,5.0,11.0,71,0.01,,,0.01,0.000000,,2013-11-25 00:52:00,
2013-11-24 19:02:00,41.0,32.0,-100.00,NNE,21,5.0,11.0,71,0.01,,,0.01,0.000000,,2013-11-25 01:02:00,
2013-11-24 19:42:00,40.0,32.0,-100.00,NE,37,6.0,11.0,72,0.00,,,0.01,0.000000,,2013-11-25 01:42:00,
2013-11-24 19:53:00,40.0,32.0,-100.00,NE,37,6.0,11.0,72,0.00,,,0.01,0.000000,,2013-11-25 01:53:00,
2013-11-24 20:01:00,40.0,32.0,-100.00,NE,37,6.0,11.0,72,0.00,,,0.01,0.000000,,2013-11-25 02:01:00,
2013-11-24 20:43:00,40.0,33.0,-100.00,NNE,24,3.0,8.0,75,0.00,,,0.01,0.000000,,2013-11-25 02:43:00,
2013-11-24 20:52:00,40.0,33.0,-100.00,NNE,24,3.0,8.0,75,0.00,,,0.01,0.000000,,2013-11-25 02:52:00,
2013-11-24 21:02:00,40.0,33.0,-100.00,NNE,24,3.0,8.0,75,0.00,,,0.01,0.000000,,2013-11-25 03:02:00,
2013-11-24 21:03:00,39.0,33.0,-100.00,NE,39,5.0,11.0,79,0.00,,,0.01,0.000000,,2013-11-25 03:03:00,
2013-11-24 21:43:00,39.0,33.0,-100.00,NE,39,5.0,11.0,79,0.00,,,0.01,0.000000,,2013-11-25 03:43:00,
2013-11-24 21:53:00,39.0,33.0,-100.00,NE,39,5.0,11.0,79,0.00,,,0.01,0.000000,,2013-11-25 03:53:00,
2013-11-24 22:43:00,37.0,34.0,-100.00,NE,40,6.0,12.0,88,0.00,,,0.01,0.000000,,2013-11-25 04:43:00,
2013-11-24 22:53:00,37.0,34.0,-100.00,NE,40,6.0,12.0,88,0.00,,,0.01,0.000000,,2013-11-25 04:53:00,
2013-11-24 23:02:00,37.0,34.0,-100.00,NE,40,6.0,12.0,88,0.00,,,0.01,0.000000,,2013-11-25 05:02:00,
2013-11-24 23:43:00,37.0,34.0,-100.00,ENE,61,5.0,11.0,90,0.02,,,0.03,0.000000,,2013-11-25 05:43:00,
2013-11-24 23:53:00,37.0,34.0,-100.00,ENE,61,5.0,11.0,90,0.02,,,0.03,0.000000,,2013-11-25 05:53:00,